sensor_id;sensor_type;location;lat;lon;timestamp;pressure;altitude;pressure_sealevel;temperature
11849;BMP180;5983;49.966;8.052;2022-07-06T00:01:08;101303.00;;;19.20
11849;BMP180;5983;49.966;8.052;2022-07-06T00:03:36;101297.00;;;19.10
11849;BMP180;5983;49.966;8.052;2022-07-06T00:06:03;101300.00;;;19.10
11849;BMP180;5983;49.966;8.052;2022-07-06T00:08:29;101303.00;;;19.10
11849;BMP180;5983;49.966;8.052;2022-07-06T00:10:56;101303.00;;;19.00
11849;BMP180;5983;49.966;8.052;2022-07-06T00:13:23;101299.00;;;19.00
11849;BMP180;5983;49.966;8.052;2022-07-06T00:15:50;101308.00;;;19.00
11849;BMP180;5983;49.966;8.052;2022-07-06T00:18:17;101303.00;;;19.00
11849;BMP180;5983;49.966;8.052;2022-07-06T00:20:45;101302.00;;;19.00
11849;BMP180;5983;49.966;8.052;2022-07-06T00:23:12;101301.00;;;19.00
11849;BMP180;5983;49.966;8.052;2022-07-06T00:25:39;101305.00;;;18.90
11849;BMP180;5983;49.966;8.052;2022-07-06T00:28:06;101302.00;;;18.90
11849;BMP180;5983;49.966;8.052;2022-07-06T00:30:33;101298.00;;;18.90
11849;BMP180;5983;49.966;8.052;2022-07-06T00:33:00;101301.00;;;18.90
11849;BMP180;5983;49.966;8.052;2022-07-06T00:35:27;101299.00;;;18.90
11849;BMP180;5983;49.966;8.052;2022-07-06T00:37:55;101301.00;;;18.90
11849;BMP180;5983;49.966;8.052;2022-07-06T00:40:22;101307.00;;;18.80
11849;BMP180;5983;49.966;8.052;2022-07-06T00:42:49;101304.00;;;18.80
11849;BMP180;5983;49.966;8.052;2022-07-06T00:45:18;101303.00;;;18.80
11849;BMP180;5983;49.966;8.052;2022-07-06T00:47:46;101294.00;;;18.70
11849;BMP180;5983;49.966;8.052;2022-07-06T00:50:16;101303.00;;;18.70
11849;BMP180;5983;49.966;8.052;2022-07-06T00:52:49;101309.00;;;18.70
11849;BMP180;5983;49.966;8.052;2022-07-06T00:55:20;101307.00;;;18.70
11849;BMP180;5983;49.966;8.052;2022-07-06T00:57:48;101306.00;;;18.60
11849;BMP180;5983;49.966;8.052;2022-07-06T01:00:18;101301.00;;;18.60
11849;BMP180;5983;49.966;8.052;2022-07-06T01:02:46;101303.00;;;18.50
11849;BMP180;5983;49.966;8.052;2022-07-06T01:05:15;101307.00;;;18.50
11849;BMP180;5983;49.966;8.052;2022-07-06T01:07:44;101300.00;;;18.50
11849;BMP180;5983;49.966;8.052;2022-07-06T01:10:13;101302.00;;;18.40
11849;BMP180;5983;49.966;8.052;2022-07-06T01:12:43;101307.00;;;18.40
11849;BMP180;5983;49.966;8.052;2022-07-06T01:15:14;101305.00;;;18.30
11849;BMP180;5983;49.966;8.052;2022-07-06T01:17:42;101301.00;;;18.30
11849;BMP180;5983;49.966;8.052;2022-07-06T01:20:12;101303.00;;;18.30
11849;BMP180;5983;49.966;8.052;2022-07-06T01:22:40;101293.00;;;18.20
11849;BMP180;5983;49.966;8.052;2022-07-06T01:25:08;101304.00;;;18.20
11849;BMP180;5983;49.966;8.052;2022-07-06T01:27:37;101302.00;;;18.10
11849;BMP180;5983;49.966;8.052;2022-07-06T01:30:07;101303.00;;;18.10
11849;BMP180;5983;49.966;8.052;2022-07-06T01:32:35;101302.00;;;18.10
11849;BMP180;5983;49.966;8.052;2022-07-06T01:35:05;101308.00;;;18.00
11849;BMP180;5983;49.966;8.052;2022-07-06T01:37:34;101304.00;;;18.00
11849;BMP180;5983;49.966;8.052;2022-07-06T01:40:02;101308.00;;;18.00
11849;BMP180;5983;49.966;8.052;2022-07-06T01:42:30;101303.00;;;17.90
11849;BMP180;5983;49.966;8.052;2022-07-06T01:44:57;101301.00;;;17.90
11849;BMP180;5983;49.966;8.052;2022-07-06T01:47:25;101295.00;;;17.80
11849;BMP180;5983;49.966;8.052;2022-07-06T01:49:52;101307.00;;;17.70
11849;BMP180;5983;49.966;8.052;2022-07-06T01:52:19;101297.00;;;17.70
11849;BMP180;5983;49.966;8.052;2022-07-06T01:54:47;101303.00;;;17.60
11849;BMP180;5983;49.966;8.052;2022-07-06T01:57:14;101303.00;;;17.50
11849;BMP180;5983;49.966;8.052;2022-07-06T01:59:41;101300.00;;;17.50
11849;BMP180;5983;49.966;8.052;2022-07-06T02:02:08;101302.00;;;17.50
11849;BMP180;5983;49.966;8.052;2022-07-06T02:04:35;101310.00;;;17.40
11849;BMP180;5983;49.966;8.052;2022-07-06T02:07:02;101301.00;;;17.40
11849;BMP180;5983;49.966;8.052;2022-07-06T02:09:29;101301.00;;;17.40
11849;BMP180;5983;49.966;8.052;2022-07-06T02:11:57;101305.00;;;17.40
11849;BMP180;5983;49.966;8.052;2022-07-06T02:14:24;101302.00;;;17.30
11849;BMP180;5983;49.966;8.052;2022-07-06T02:16:51;101306.00;;;17.30
11849;BMP180;5983;49.966;8.052;2022-07-06T02:19:18;101306.00;;;17.30
11849;BMP180;5983;49.966;8.052;2022-07-06T02:21:45;101315.00;;;17.20
11849;BMP180;5983;49.966;8.052;2022-07-06T02:24:12;101309.00;;;17.20
11849;BMP180;5983;49.966;8.052;2022-07-06T02:26:39;101298.00;;;17.20
11849;BMP180;5983;49.966;8.052;2022-07-06T02:29:07;101307.00;;;17.10
11849;BMP180;5983;49.966;8.052;2022-07-06T02:31:34;101301.00;;;17.10
11849;BMP180;5983;49.966;8.052;2022-07-06T02:34:01;101306.00;;;17.10
11849;BMP180;5983;49.966;8.052;2022-07-06T02:36:28;101308.00;;;17.10
11849;BMP180;5983;49.966;8.052;2022-07-06T02:38:55;101306.00;;;17.10
11849;BMP180;5983;49.966;8.052;2022-07-06T02:41:22;101309.00;;;17.00
11849;BMP180;5983;49.966;8.052;2022-07-06T02:43:48;101307.00;;;17.00
11849;BMP180;5983;49.966;8.052;2022-07-06T02:46:17;101305.00;;;17.00
11849;BMP180;5983;49.966;8.052;2022-07-06T02:48:43;101313.00;;;17.00
11849;BMP180;5983;49.966;8.052;2022-07-06T02:51:10;101316.00;;;17.00
11849;BMP180;5983;49.966;8.052;2022-07-06T02:53:37;101316.00;;;17.00
11849;BMP180;5983;49.966;8.052;2022-07-06T02:56:04;101322.00;;;16.90
11849;BMP180;5983;49.966;8.052;2022-07-06T02:58:31;101319.00;;;16.90
11849;BMP180;5983;49.966;8.052;2022-07-06T03:00:58;101309.00;;;16.80
11849;BMP180;5983;49.966;8.052;2022-07-06T03:03:26;101310.00;;;16.80
11849;BMP180;5983;49.966;8.052;2022-07-06T03:05:53;101311.00;;;16.80
11849;BMP180;5983;49.966;8.052;2022-07-06T03:08:20;101311.00;;;16.80
11849;BMP180;5983;49.966;8.052;2022-07-06T03:10:47;101313.00;;;16.80
11849;BMP180;5983;49.966;8.052;2022-07-06T03:13:14;101323.00;;;16.90
11849;BMP180;5983;49.966;8.052;2022-07-06T03:15:41;101324.00;;;16.90
11849;BMP180;5983;49.966;8.052;2022-07-06T03:18:08;101324.00;;;16.90
11849;BMP180;5983;49.966;8.052;2022-07-06T03:20:36;101331.00;;;17.00
11849;BMP180;5983;49.966;8.052;2022-07-06T03:23:03;101332.00;;;17.00
11849;BMP180;5983;49.966;8.052;2022-07-06T03:25:30;101335.00;;;16.90
11849;BMP180;5983;49.966;8.052;2022-07-06T03:27:58;101339.00;;;16.90
11849;BMP180;5983;49.966;8.052;2022-07-06T03:30:25;101339.00;;;16.90
11849;BMP180;5983;49.966;8.052;2022-07-06T03:32:51;101345.00;;;16.80
11849;BMP180;5983;49.966;8.052;2022-07-06T03:35:18;101341.00;;;16.80
11849;BMP180;5983;49.966;8.052;2022-07-06T03:37:47;101342.00;;;16.80
11849;BMP180;5983;49.966;8.052;2022-07-06T03:40:14;101347.00;;;16.80
11849;BMP180;5983;49.966;8.052;2022-07-06T03:42:41;101342.00;;;16.80
11849;BMP180;5983;49.966;8.052;2022-07-06T03:45:10;101347.00;;;16.80
11849;BMP180;5983;49.966;8.052;2022-07-06T03:47:37;101350.00;;;16.70
11849;BMP180;5983;49.966;8.052;2022-07-06T03:50:06;101345.00;;;16.80
11849;BMP180;5983;49.966;8.052;2022-07-06T03:52:34;101352.00;;;16.80
11849;BMP180;5983;49.966;8.052;2022-07-06T03:55:08;101341.00;;;16.80
11849;BMP180;5983;49.966;8.052;2022-07-06T03:57:36;101344.00;;;16.70
11849;BMP180;5983;49.966;8.052;2022-07-06T04:00:04;101350.00;;;16.70
11849;BMP180;5983;49.966;8.052;2022-07-06T04:02:31;101356.00;;;16.80
11849;BMP180;5983;49.966;8.052;2022-07-06T04:04:58;101360.00;;;16.70
11849;BMP180;5983;49.966;8.052;2022-07-06T04:07:25;101363.00;;;16.70
11849;BMP180;5983;49.966;8.052;2022-07-06T04:09:52;101368.00;;;16.70
11849;BMP180;5983;49.966;8.052;2022-07-06T04:12:21;101361.00;;;16.70
11849;BMP180;5983;49.966;8.052;2022-07-06T04:14:48;101373.00;;;16.70
11849;BMP180;5983;49.966;8.052;2022-07-06T04:17:15;101355.00;;;16.70
11849;BMP180;5983;49.966;8.052;2022-07-06T04:20:00;101367.00;;;16.70
11849;BMP180;5983;49.966;8.052;2022-07-06T04:22:27;101362.00;;;16.70
11849;BMP180;5983;49.966;8.052;2022-07-06T04:24:53;101365.00;;;16.70
11849;BMP180;5983;49.966;8.052;2022-07-06T04:27:22;101372.00;;;16.70
11849;BMP180;5983;49.966;8.052;2022-07-06T04:29:49;101366.00;;;16.70
11849;BMP180;5983;49.966;8.052;2022-07-06T04:32:15;101377.00;;;16.80
11849;BMP180;5983;49.966;8.052;2022-07-06T04:34:42;101375.00;;;16.80
11849;BMP180;5983;49.966;8.052;2022-07-06T04:37:09;101369.00;;;16.90
11849;BMP180;5983;49.966;8.052;2022-07-06T04:39:36;101371.00;;;16.90
11849;BMP180;5983;49.966;8.052;2022-07-06T04:42:03;101368.00;;;16.90
11849;BMP180;5983;49.966;8.052;2022-07-06T04:44:32;101369.00;;;17.00
11849;BMP180;5983;49.966;8.052;2022-07-06T04:46:59;101372.00;;;17.10
11849;BMP180;5983;49.966;8.052;2022-07-06T04:49:25;101370.00;;;17.10
11849;BMP180;5983;49.966;8.052;2022-07-06T04:51:52;101359.00;;;17.10
11849;BMP180;5983;49.966;8.052;2022-07-06T04:54:20;101362.00;;;17.10
11849;BMP180;5983;49.966;8.052;2022-07-06T04:56:47;101350.00;;;17.10
11849;BMP180;5983;49.966;8.052;2022-07-06T04:59:14;101372.00;;;17.20
11849;BMP180;5983;49.966;8.052;2022-07-06T05:01:42;101375.00;;;17.20
11849;BMP180;5983;49.966;8.052;2022-07-06T05:04:09;101363.00;;;17.20
11849;BMP180;5983;49.966;8.052;2022-07-06T05:06:40;101377.00;;;17.30
11849;BMP180;5983;49.966;8.052;2022-07-06T05:09:07;101379.00;;;17.30
11849;BMP180;5983;49.966;8.052;2022-07-06T05:11:33;101383.00;;;17.40
11849;BMP180;5983;49.966;8.052;2022-07-06T05:14:01;101378.00;;;17.50
11849;BMP180;5983;49.966;8.052;2022-07-06T05:16:28;101389.00;;;17.50
11849;BMP180;5983;49.966;8.052;2022-07-06T05:18:56;101390.00;;;17.60
11849;BMP180;5983;49.966;8.052;2022-07-06T05:21:23;101383.00;;;17.70
11849;BMP180;5983;49.966;8.052;2022-07-06T05:23:50;101385.00;;;17.80
11849;BMP180;5983;49.966;8.052;2022-07-06T05:26:17;101388.00;;;17.90
11849;BMP180;5983;49.966;8.052;2022-07-06T05:28:44;101393.00;;;17.90
11849;BMP180;5983;49.966;8.052;2022-07-06T05:31:11;101393.00;;;18.00
11849;BMP180;5983;49.966;8.052;2022-07-06T05:33:38;101387.00;;;18.10
11849;BMP180;5983;49.966;8.052;2022-07-06T05:36:06;101396.00;;;18.20
11849;BMP180;5983;49.966;8.052;2022-07-06T05:38:34;101387.00;;;18.20
11849;BMP180;5983;49.966;8.052;2022-07-06T05:41:01;101392.00;;;18.30
11849;BMP180;5983;49.966;8.052;2022-07-06T05:43:28;101398.00;;;18.40
11849;BMP180;5983;49.966;8.052;2022-07-06T05:45:55;101399.00;;;18.50
11849;BMP180;5983;49.966;8.052;2022-07-06T05:48:22;101399.00;;;18.50
11849;BMP180;5983;49.966;8.052;2022-07-06T05:51:08;101391.00;;;18.50
11849;BMP180;5983;49.966;8.052;2022-07-06T05:53:35;101396.00;;;18.50
11849;BMP180;5983;49.966;8.052;2022-07-06T05:56:02;101394.00;;;18.60
11849;BMP180;5983;49.966;8.052;2022-07-06T05:58:29;101403.00;;;18.60
11849;BMP180;5983;49.966;8.052;2022-07-06T06:00:56;101401.00;;;18.50
11849;BMP180;5983;49.966;8.052;2022-07-06T06:03:23;101404.00;;;18.60
11849;BMP180;5983;49.966;8.052;2022-07-06T06:05:50;101410.00;;;18.70
11849;BMP180;5983;49.966;8.052;2022-07-06T06:08:18;101413.00;;;18.80
11849;BMP180;5983;49.966;8.052;2022-07-06T06:10:45;101414.00;;;18.80
11849;BMP180;5983;49.966;8.052;2022-07-06T06:13:12;101404.00;;;18.80
11849;BMP180;5983;49.966;8.052;2022-07-06T06:15:39;101404.00;;;18.80
11849;BMP180;5983;49.966;8.052;2022-07-06T06:18:06;101404.00;;;18.90
11849;BMP180;5983;49.966;8.052;2022-07-06T06:20:33;101407.00;;;19.00
11849;BMP180;5983;49.966;8.052;2022-07-06T06:23:00;101403.00;;;19.00
11849;BMP180;5983;49.966;8.052;2022-07-06T06:25:33;101406.00;;;19.10
11849;BMP180;5983;49.966;8.052;2022-07-06T06:28:02;101402.00;;;19.20
11849;BMP180;5983;49.966;8.052;2022-07-06T06:30:29;101412.00;;;19.20
11849;BMP180;5983;49.966;8.052;2022-07-06T06:33:07;101414.00;;;19.20
11849;BMP180;5983;49.966;8.052;2022-07-06T06:35:34;101406.00;;;19.30
11849;BMP180;5983;49.966;8.052;2022-07-06T06:38:01;101409.00;;;19.40
11849;BMP180;5983;49.966;8.052;2022-07-06T06:40:30;101405.00;;;19.50
11849;BMP180;5983;49.966;8.052;2022-07-06T06:42:57;101409.00;;;19.60
11849;BMP180;5983;49.966;8.052;2022-07-06T06:45:24;101404.00;;;19.70
11849;BMP180;5983;49.966;8.052;2022-07-06T06:47:53;101421.00;;;19.80
11849;BMP180;5983;49.966;8.052;2022-07-06T06:50:20;101417.00;;;19.90
11849;BMP180;5983;49.966;8.052;2022-07-06T06:52:48;101422.00;;;19.90
11849;BMP180;5983;49.966;8.052;2022-07-06T06:55:15;101416.00;;;20.00
11849;BMP180;5983;49.966;8.052;2022-07-06T06:57:44;101420.00;;;20.10
11849;BMP180;5983;49.966;8.052;2022-07-06T07:00:12;101416.00;;;20.20
11849;BMP180;5983;49.966;8.052;2022-07-06T07:02:40;101415.00;;;20.30
11849;BMP180;5983;49.966;8.052;2022-07-06T07:05:07;101431.00;;;20.30
11849;BMP180;5983;49.966;8.052;2022-07-06T07:07:36;101423.00;;;20.30
11849;BMP180;5983;49.966;8.052;2022-07-06T07:10:05;101428.00;;;20.30
11849;BMP180;5983;49.966;8.052;2022-07-06T07:12:32;101427.00;;;20.40
11849;BMP180;5983;49.966;8.052;2022-07-06T07:15:01;101439.00;;;20.40
11849;BMP180;5983;49.966;8.052;2022-07-06T07:17:27;101439.00;;;20.50
11849;BMP180;5983;49.966;8.052;2022-07-06T07:19:54;101442.00;;;20.50
11849;BMP180;5983;49.966;8.052;2022-07-06T07:22:23;101438.00;;;20.60
11849;BMP180;5983;49.966;8.052;2022-07-06T07:24:51;101437.00;;;20.60
11849;BMP180;5983;49.966;8.052;2022-07-06T07:27:18;101439.00;;;20.60
11849;BMP180;5983;49.966;8.052;2022-07-06T07:29:44;101429.00;;;20.70
11849;BMP180;5983;49.966;8.052;2022-07-06T07:32:13;101431.00;;;20.80
11849;BMP180;5983;49.966;8.052;2022-07-06T07:34:40;101434.00;;;20.80
11849;BMP180;5983;49.966;8.052;2022-07-06T07:37:07;101430.00;;;20.80
11849;BMP180;5983;49.966;8.052;2022-07-06T07:39:33;101433.00;;;20.80
11849;BMP180;5983;49.966;8.052;2022-07-06T07:42:00;101422.00;;;20.90
11849;BMP180;5983;49.966;8.052;2022-07-06T07:44:27;101435.00;;;21.00
11849;BMP180;5983;49.966;8.052;2022-07-06T07:46:54;101436.00;;;21.10
11849;BMP180;5983;49.966;8.052;2022-07-06T07:49:22;101445.00;;;21.20
11849;BMP180;5983;49.966;8.052;2022-07-06T07:51:49;101436.00;;;21.30
11849;BMP180;5983;49.966;8.052;2022-07-06T07:54:16;101439.00;;;21.40
11849;BMP180;5983;49.966;8.052;2022-07-06T07:56:44;101438.00;;;21.40
11849;BMP180;5983;49.966;8.052;2022-07-06T07:59:10;101439.00;;;21.40
11849;BMP180;5983;49.966;8.052;2022-07-06T08:01:37;101431.00;;;21.30
11849;BMP180;5983;49.966;8.052;2022-07-06T08:04:04;101435.00;;;21.40
11849;BMP180;5983;49.966;8.052;2022-07-06T08:06:33;101428.00;;;21.50
11849;BMP180;5983;49.966;8.052;2022-07-06T08:09:00;101441.00;;;21.70
11849;BMP180;5983;49.966;8.052;2022-07-06T08:11:28;101432.00;;;21.80
11849;BMP180;5983;49.966;8.052;2022-07-06T08:13:56;101438.00;;;21.90
11849;BMP180;5983;49.966;8.052;2022-07-06T08:16:23;101435.00;;;21.90
11849;BMP180;5983;49.966;8.052;2022-07-06T08:18:49;101432.00;;;21.80
11849;BMP180;5983;49.966;8.052;2022-07-06T08:21:16;101432.00;;;21.80
11849;BMP180;5983;49.966;8.052;2022-07-06T08:23:45;101443.00;;;21.80
11849;BMP180;5983;49.966;8.052;2022-07-06T08:26:12;101432.00;;;21.80
11849;BMP180;5983;49.966;8.052;2022-07-06T08:28:39;101426.00;;;21.80
11849;BMP180;5983;49.966;8.052;2022-07-06T08:31:06;101431.00;;;22.00
11849;BMP180;5983;49.966;8.052;2022-07-06T08:33:33;101434.00;;;22.00
11849;BMP180;5983;49.966;8.052;2022-07-06T08:35:59;101442.00;;;22.10
11849;BMP180;5983;49.966;8.052;2022-07-06T08:38:26;101445.00;;;22.20
11849;BMP180;5983;49.966;8.052;2022-07-06T08:40:55;101430.00;;;22.30
11849;BMP180;5983;49.966;8.052;2022-07-06T08:43:23;101453.00;;;22.40
11849;BMP180;5983;49.966;8.052;2022-07-06T08:45:53;101445.00;;;22.40
11849;BMP180;5983;49.966;8.052;2022-07-06T08:48:23;101448.00;;;22.50
11849;BMP180;5983;49.966;8.052;2022-07-06T08:50:51;101438.00;;;22.40
11849;BMP180;5983;49.966;8.052;2022-07-06T08:53:20;101449.00;;;22.50
11849;BMP180;5983;49.966;8.052;2022-07-06T08:55:49;101435.00;;;22.60
11849;BMP180;5983;49.966;8.052;2022-07-06T08:58:19;101427.00;;;22.60
11849;BMP180;5983;49.966;8.052;2022-07-06T09:00:46;101435.00;;;22.60
11849;BMP180;5983;49.966;8.052;2022-07-06T09:03:13;101438.00;;;22.70
11849;BMP180;5983;49.966;8.052;2022-07-06T09:05:40;101438.00;;;22.70
11849;BMP180;5983;49.966;8.052;2022-07-06T09:08:08;101445.00;;;22.80
11849;BMP180;5983;49.966;8.052;2022-07-06T09:10:35;101442.00;;;22.90
11849;BMP180;5983;49.966;8.052;2022-07-06T09:13:04;101440.00;;;23.00
11849;BMP180;5983;49.966;8.052;2022-07-06T09:15:35;101437.00;;;23.10
11849;BMP180;5983;49.966;8.052;2022-07-06T09:18:04;101448.00;;;23.30
11849;BMP180;5983;49.966;8.052;2022-07-06T09:20:32;101447.00;;;23.30
11849;BMP180;5983;49.966;8.052;2022-07-06T09:23:00;101440.00;;;23.30
11849;BMP180;5983;49.966;8.052;2022-07-06T09:25:28;101441.00;;;23.40
11849;BMP180;5983;49.966;8.052;2022-07-06T09:27:58;101442.00;;;23.50
11849;BMP180;5983;49.966;8.052;2022-07-06T09:30:27;101450.00;;;23.60
11849;BMP180;5983;49.966;8.052;2022-07-06T09:32:58;101450.00;;;23.60
11849;BMP180;5983;49.966;8.052;2022-07-06T09:35:28;101444.00;;;23.60
11849;BMP180;5983;49.966;8.052;2022-07-06T09:38:04;101447.00;;;23.70
11849;BMP180;5983;49.966;8.052;2022-07-06T09:40:33;101453.00;;;23.70
11849;BMP180;5983;49.966;8.052;2022-07-06T09:43:12;101454.00;;;23.90
11849;BMP180;5983;49.966;8.052;2022-07-06T09:45:50;101453.00;;;23.90
11849;BMP180;5983;49.966;8.052;2022-07-06T09:48:24;101464.00;;;24.00
11849;BMP180;5983;49.966;8.052;2022-07-06T09:50:53;101459.00;;;24.10
11849;BMP180;5983;49.966;8.052;2022-07-06T09:53:23;101459.00;;;24.20
11849;BMP180;5983;49.966;8.052;2022-07-06T09:55:52;101458.00;;;24.20
11849;BMP180;5983;49.966;8.052;2022-07-06T09:58:21;101476.00;;;24.20
11849;BMP180;5983;49.966;8.052;2022-07-06T10:00:49;101459.00;;;24.20
11849;BMP180;5983;49.966;8.052;2022-07-06T10:03:18;101463.00;;;24.30
11849;BMP180;5983;49.966;8.052;2022-07-06T10:05:47;101462.00;;;24.20
11849;BMP180;5983;49.966;8.052;2022-07-06T10:08:17;101456.00;;;24.00
11849;BMP180;5983;49.966;8.052;2022-07-06T10:10:44;101456.00;;;24.10
11849;BMP180;5983;49.966;8.052;2022-07-06T10:13:12;101463.00;;;24.20
11849;BMP180;5983;49.966;8.052;2022-07-06T10:15:41;101464.00;;;24.30
11849;BMP180;5983;49.966;8.052;2022-07-06T10:18:09;101460.00;;;24.30
11849;BMP180;5983;49.966;8.052;2022-07-06T10:20:38;101452.00;;;24.40
11849;BMP180;5983;49.966;8.052;2022-07-06T10:23:11;101455.00;;;24.40
11849;BMP180;5983;49.966;8.052;2022-07-06T10:25:42;101458.00;;;24.40
11849;BMP180;5983;49.966;8.052;2022-07-06T10:28:10;101446.00;;;24.50
11849;BMP180;5983;49.966;8.052;2022-07-06T10:30:41;101450.00;;;24.60
11849;BMP180;5983;49.966;8.052;2022-07-06T10:33:10;101452.00;;;24.70
11849;BMP180;5983;49.966;8.052;2022-07-06T10:35:40;101448.00;;;24.70
11849;BMP180;5983;49.966;8.052;2022-07-06T10:38:10;101438.00;;;24.90
11849;BMP180;5983;49.966;8.052;2022-07-06T10:40:40;101443.00;;;24.80
11849;BMP180;5983;49.966;8.052;2022-07-06T10:43:32;101440.00;;;24.70
11849;BMP180;5983;49.966;8.052;2022-07-06T10:46:06;101439.00;;;24.60
11849;BMP180;5983;49.966;8.052;2022-07-06T10:48:38;101439.00;;;24.60
11849;BMP180;5983;49.966;8.052;2022-07-06T10:51:05;101445.00;;;24.60
11849;BMP180;5983;49.966;8.052;2022-07-06T10:53:36;101451.00;;;24.50
11849;BMP180;5983;49.966;8.052;2022-07-06T10:56:08;101447.00;;;24.60
11849;BMP180;5983;49.966;8.052;2022-07-06T10:58:40;101451.00;;;24.70
11849;BMP180;5983;49.966;8.052;2022-07-06T11:01:08;101452.00;;;24.80
11849;BMP180;5983;49.966;8.052;2022-07-06T11:03:41;101449.00;;;24.90
11849;BMP180;5983;49.966;8.052;2022-07-06T11:06:13;101441.00;;;24.90
11849;BMP180;5983;49.966;8.052;2022-07-06T11:11:25;101439.00;;;25.10
11849;BMP180;5983;49.966;8.052;2022-07-06T11:14:01;101443.00;;;25.10
11849;BMP180;5983;49.966;8.052;2022-07-06T11:16:30;101441.00;;;25.20
11849;BMP180;5983;49.966;8.052;2022-07-06T11:19:06;101445.00;;;25.20
11849;BMP180;5983;49.966;8.052;2022-07-06T11:21:44;101446.00;;;25.20
11849;BMP180;5983;49.966;8.052;2022-07-06T11:24:15;101448.00;;;25.10
11849;BMP180;5983;49.966;8.052;2022-07-06T11:26:45;101448.00;;;25.10
11849;BMP180;5983;49.966;8.052;2022-07-06T11:29:13;101446.00;;;25.10
11849;BMP180;5983;49.966;8.052;2022-07-06T11:31:43;101438.00;;;25.10
11849;BMP180;5983;49.966;8.052;2022-07-06T11:34:20;101431.00;;;25.10
11849;BMP180;5983;49.966;8.052;2022-07-06T11:36:48;101449.00;;;25.10
11849;BMP180;5983;49.966;8.052;2022-07-06T11:39:17;101449.00;;;25.20
11849;BMP180;5983;49.966;8.052;2022-07-06T11:41:44;101435.00;;;25.10
11849;BMP180;5983;49.966;8.052;2022-07-06T11:44:10;101435.00;;;25.10
11849;BMP180;5983;49.966;8.052;2022-07-06T11:46:37;101434.00;;;25.20
11849;BMP180;5983;49.966;8.052;2022-07-06T11:49:07;101435.00;;;25.20
11849;BMP180;5983;49.966;8.052;2022-07-06T11:51:37;101435.00;;;25.30
11849;BMP180;5983;49.966;8.052;2022-07-06T11:54:09;101423.00;;;25.30
11849;BMP180;5983;49.966;8.052;2022-07-06T11:56:46;101437.00;;;25.30
11849;BMP180;5983;49.966;8.052;2022-07-06T11:59:15;101421.00;;;25.30
11849;BMP180;5983;49.966;8.052;2022-07-06T12:01:42;101420.00;;;25.30
11849;BMP180;5983;49.966;8.052;2022-07-06T12:04:10;101418.00;;;25.30
11849;BMP180;5983;49.966;8.052;2022-07-06T12:06:37;101424.00;;;25.20
11849;BMP180;5983;49.966;8.052;2022-07-06T12:09:04;101418.00;;;25.20
11849;BMP180;5983;49.966;8.052;2022-07-06T12:11:36;101412.00;;;25.20
11849;BMP180;5983;49.966;8.052;2022-07-06T12:14:15;101417.00;;;25.30
11849;BMP180;5983;49.966;8.052;2022-07-06T12:16:44;101423.00;;;25.40
11849;BMP180;5983;49.966;8.052;2022-07-06T12:19:11;101413.00;;;25.50
11849;BMP180;5983;49.966;8.052;2022-07-06T12:21:44;101420.00;;;25.60
11849;BMP180;5983;49.966;8.052;2022-07-06T12:24:18;101411.00;;;25.60
11849;BMP180;5983;49.966;8.052;2022-07-06T12:26:47;101409.00;;;25.50
11849;BMP180;5983;49.966;8.052;2022-07-06T12:29:16;101410.00;;;25.60
11849;BMP180;5983;49.966;8.052;2022-07-06T12:31:48;101409.00;;;25.50
11849;BMP180;5983;49.966;8.052;2022-07-06T12:34:17;101415.00;;;25.50
11849;BMP180;5983;49.966;8.052;2022-07-06T12:36:46;101402.00;;;25.50
11849;BMP180;5983;49.966;8.052;2022-07-06T12:39:15;101407.00;;;25.60
11849;BMP180;5983;49.966;8.052;2022-07-06T12:41:48;101408.00;;;25.60
11849;BMP180;5983;49.966;8.052;2022-07-06T12:44:20;101414.00;;;25.70
11849;BMP180;5983;49.966;8.052;2022-07-06T12:46:49;101405.00;;;25.70
11849;BMP180;5983;49.966;8.052;2022-07-06T12:49:19;101412.00;;;25.70
11849;BMP180;5983;49.966;8.052;2022-07-06T12:51:58;101420.00;;;25.80
11849;BMP180;5983;49.966;8.052;2022-07-06T12:54:30;101414.00;;;25.80
11849;BMP180;5983;49.966;8.052;2022-07-06T12:57:09;101409.00;;;25.80
11849;BMP180;5983;49.966;8.052;2022-07-06T12:59:44;101419.00;;;25.80
11849;BMP180;5983;49.966;8.052;2022-07-06T13:02:20;101419.00;;;25.80
11849;BMP180;5983;49.966;8.052;2022-07-06T13:04:59;101405.00;;;25.70
11849;BMP180;5983;49.966;8.052;2022-07-06T13:07:27;101408.00;;;25.60
11849;BMP180;5983;49.966;8.052;2022-07-06T13:09:55;101416.00;;;25.60
11849;BMP180;5983;49.966;8.052;2022-07-06T13:12:22;101414.00;;;25.60
11849;BMP180;5983;49.966;8.052;2022-07-06T13:14:51;101418.00;;;25.70
11849;BMP180;5983;49.966;8.052;2022-07-06T13:17:20;101419.00;;;25.70
11849;BMP180;5983;49.966;8.052;2022-07-06T13:19:47;101413.00;;;25.70
11849;BMP180;5983;49.966;8.052;2022-07-06T13:22:20;101412.00;;;25.70
11849;BMP180;5983;49.966;8.052;2022-07-06T13:24:47;101410.00;;;25.50
11849;BMP180;5983;49.966;8.052;2022-07-06T13:27:14;101410.00;;;25.50
11849;BMP180;5983;49.966;8.052;2022-07-06T13:29:41;101414.00;;;25.50
11849;BMP180;5983;49.966;8.052;2022-07-06T13:32:09;101412.00;;;25.50
11849;BMP180;5983;49.966;8.052;2022-07-06T13:34:36;101407.00;;;25.50
11849;BMP180;5983;49.966;8.052;2022-07-06T13:37:04;101410.00;;;25.60
11849;BMP180;5983;49.966;8.052;2022-07-06T13:39:33;101406.00;;;25.50
11849;BMP180;5983;49.966;8.052;2022-07-06T13:42:00;101409.00;;;25.50
11849;BMP180;5983;49.966;8.052;2022-07-06T13:44:27;101405.00;;;25.30
11849;BMP180;5983;49.966;8.052;2022-07-06T13:46:54;101396.00;;;25.30
11849;BMP180;5983;49.966;8.052;2022-07-06T13:49:22;101400.00;;;25.30
11849;BMP180;5983;49.966;8.052;2022-07-06T13:51:49;101397.00;;;25.40
11849;BMP180;5983;49.966;8.052;2022-07-06T13:54:17;101395.00;;;25.50
11849;BMP180;5983;49.966;8.052;2022-07-06T13:56:44;101389.00;;;25.40
11849;BMP180;5983;49.966;8.052;2022-07-06T13:59:11;101388.00;;;25.50
11849;BMP180;5983;49.966;8.052;2022-07-06T14:01:38;101386.00;;;25.50
11849;BMP180;5983;49.966;8.052;2022-07-06T14:04:05;101382.00;;;25.50
11849;BMP180;5983;49.966;8.052;2022-07-06T14:06:33;101386.00;;;25.50
11849;BMP180;5983;49.966;8.052;2022-07-06T14:09:01;101392.00;;;25.50
11849;BMP180;5983;49.966;8.052;2022-07-06T14:11:28;101382.00;;;25.50
11849;BMP180;5983;49.966;8.052;2022-07-06T14:13:55;101374.00;;;25.30
11849;BMP180;5983;49.966;8.052;2022-07-06T14:16:22;101371.00;;;25.20
11849;BMP180;5983;49.966;8.052;2022-07-06T14:18:49;101369.00;;;25.10